Weather at Tanda Tula Airport

Public forecast

Using degrees Celsius for public forecast. Weather courtesy of forecast.io.

Closest aviation weather report (METAR) to Tanda Tula Airport

Closest report is Hoedspruit Air Force Base Airport, 16.9 nm (31.4 km) NW. Retrieved 2022/05/22 16:00 UTC (33 minutes ago):

FAHS 221600Z AUTO 22004KT //// // ////// 14/13 Q1019

Closest aviation forecast (TAF) to Tanda Tula Airport

Forecast is more than 12 hours old.

Closest forecast is Hoedspruit Air Force Base Airport, 16.9 nm (31.4 km) NW. Retrieved 2017/05/23 04:01 UTC (5 years ago):

TAF FAHS 230300Z 2304/2315 VRB02KT CAVOK TX29/2312ZTN12/2304Z